BAW366U EGLL-LFML
Flight info
| Callsign | BAW366U |
|---|---|
| Flight time | N/A |
| Altitude | 33000 |
| Route | MODMI M185 MID L612 BOGNA UL612 VEULE DCT KOTAP DCT KETEX DCT KOTIS DCT KUKOR DCT UTUVA DCT LERGA |
| Aircraft | A320/M-SDE3FGHIRWY/LB1 |
Departure
| Time | 2026-05-01 14:57 |
|---|---|
| Airport | London Heathrow Airport (EGLL) |
Arrival
| Time | N/A |
|---|---|
| Airport | Marseille Provence Airport (LFML) |
| Time | Latitude | Longitude | Altitude | Speed | Heading |
|---|---|---|---|---|---|
| 2026-05-01 14:01 | 51.47188 | -0.48589 | 86 ft | 0 kts | 269° |
| 2026-05-01 14:44 | 51.47188 | -0.48531 | 86 ft | 2 kts | 270° |
| 2026-05-01 14:44 | 51.47191 | -0.48494 | 86 ft | 4 kts | 238° |
| 2026-05-01 14:45 | 51.47208 | -0.48473 | 89 ft | 3 kts | 180° |
| 2026-05-01 14:45 | 51.47227 | -0.48473 | 86 ft | 0 kts | 179° |
| 2026-05-01 14:48 | 51.47220 | -0.48473 | 89 ft | 2 kts | 179° |
| 2026-05-01 14:48 | 51.47195 | -0.48473 | 89 ft | 5 kts | 179° |
| 2026-05-01 14:48 | 51.47086 | -0.48471 | 89 ft | 11 kts | 180° |
| 2026-05-01 14:49 | 51.46909 | -0.48470 | 89 ft | 14 kts | 179° |
| 2026-05-01 14:49 | 51.46680 | -0.48465 | 86 ft | 15 kts | 169° |
| 2026-05-01 14:50 | 51.46653 | -0.48291 | 86 ft | 14 kts | 89° |
| 2026-05-01 14:50 | 51.46655 | -0.47785 | 86 ft | 20 kts | 89° |
| 2026-05-01 14:51 | 51.46655 | -0.47556 | 86 ft | 22 kts | 90° |
| 2026-05-01 14:51 | 51.46656 | -0.47054 | 89 ft | 24 kts | 89° |
| 2026-05-01 14:52 | 51.46659 | -0.46544 | 90 ft | 18 kts | 89° |
| 2026-05-01 14:52 | 51.46659 | -0.46327 | 88 ft | 20 kts | 90° |
| 2026-05-01 14:52 | 51.46661 | -0.45851 | 86 ft | 10 kts | 88° |
| 2026-05-01 14:53 | 51.46662 | -0.45738 | 86 ft | 11 kts | 90° |
| 2026-05-01 14:53 | 51.46662 | -0.45604 | 86 ft | 13 kts | 90° |
| 2026-05-01 14:53 | 51.46662 | -0.45446 | 86 ft | 15 kts | 90° |
| 2026-05-01 14:53 | 51.46663 | -0.45268 | 86 ft | 17 kts | 90° |
| 2026-05-01 14:54 | 51.46664 | -0.45067 | 86 ft | 19 kts | 89° |
| 2026-05-01 14:54 | 51.46665 | -0.44842 | 87 ft | 21 kts | 90° |
| 2026-05-01 14:54 | 51.46665 | -0.44591 | 86 ft | 24 kts | 90° |
| 2026-05-01 14:54 | 51.46666 | -0.44316 | 86 ft | 26 kts | 90° |
| 2026-05-01 14:55 | 51.46667 | -0.44040 | 86 ft | 20 kts | 89° |
| 2026-05-01 14:55 | 51.46667 | -0.43875 | 86 ft | 11 kts | 95° |
| 2026-05-01 14:55 | 51.46661 | -0.43845 | 86 ft | 1 kts | 115° |
| 2026-05-01 14:55 | 51.46647 | -0.43834 | 87 ft | 3 kts | 165° |
| 2026-05-01 14:56 | 51.46612 | -0.43829 | 86 ft | 7 kts | 178° |
| 2026-05-01 14:56 | 51.46554 | -0.43827 | 85 ft | 10 kts | 179° |
| 2026-05-01 14:56 | 51.46495 | -0.43886 | 86 ft | 11 kts | 252° |
| 2026-05-01 14:56 | 51.46494 | -0.44011 | 85 ft | 13 kts | 270° |
| 2026-05-01 14:57 | 51.46490 | -0.44469 | 88 ft | 76 kts | 270° |
| 2026-05-01 14:57 | 51.46486 | -0.47380 | 164 ft | 169 kts | 263° |
| 2026-05-01 14:57 | 51.46496 | -0.49208 | 888 ft | 162 kts | 265° |
| 2026-05-01 14:58 | 51.46494 | -0.51032 | 1426 ft | 172 kts | 266° |
| 2026-05-01 14:58 | 51.46341 | -0.53058 | 1688 ft | 193 kts | 249° |
| 2026-05-01 14:58 | 51.45700 | -0.55072 | 2005 ft | 214 kts | 237° |
| 2026-05-01 14:58 | 51.44896 | -0.57253 | 2440 ft | 238 kts | 237° |
| 2026-05-01 14:59 | 51.44030 | -0.59581 | 3249 ft | 246 kts | 232° |
| 2026-05-01 14:59 | 51.42750 | -0.61345 | 4112 ft | 249 kts | 202° |
| 2026-05-01 14:59 | 51.41030 | -0.61689 | 4998 ft | 255 kts | 170° |
| 2026-05-01 14:59 | 51.39314 | -0.60874 | 5694 ft | 261 kts | 163° |
| 2026-05-01 15:00 | 51.35870 | -0.58964 | 7371 ft | 264 kts | 162° |
| 2026-05-01 15:00 | 51.34134 | -0.57990 | 8245 ft | 266 kts | 163° |
| 2026-05-01 15:00 | 51.32379 | -0.57015 | 9130 ft | 267 kts | 162° |
| 2026-05-01 15:01 | 51.30619 | -0.56052 | 10019 ft | 268 kts | 165° |
| 2026-05-01 15:01 | 51.28783 | -0.55589 | 10770 ft | 269 kts | 180° |
| 2026-05-01 15:01 | 51.26871 | -0.55833 | 11193 ft | 286 kts | 186° |
| 2026-05-01 15:01 | 51.24821 | -0.56211 | 11453 ft | 306 kts | 189° |
| 2026-05-01 15:02 | 51.22713 | -0.56913 | 12053 ft | 312 kts | 191° |
| 2026-05-01 15:02 | 51.21993 | -0.57155 | 12281 ft | 314 kts | 191° |
| 2026-05-01 15:02 | 51.18398 | -0.58334 | 13422 ft | 321 kts | 191° |
| 2026-05-01 15:02 | 51.16199 | -0.59041 | 14114 ft | 324 kts | 190° |
| 2026-05-01 15:03 | 51.13989 | -0.59747 | 14728 ft | 327 kts | 190° |
| 2026-05-01 15:03 | 51.11739 | -0.60464 | 15357 ft | 330 kts | 190° |
| 2026-05-01 15:03 | 51.09485 | -0.61179 | 15971 ft | 333 kts | 189° |
| 2026-05-01 15:03 | 51.07163 | -0.61500 | 16573 ft | 336 kts | 178° |
| 2026-05-01 15:04 | 51.04859 | -0.60954 | 17194 ft | 339 kts | 165° |
| 2026-05-01 15:04 | 51.02664 | -0.59533 | 17812 ft | 343 kts | 152° |
| 2026-05-01 15:04 | 51.00656 | -0.57444 | 18425 ft | 347 kts | 148° |
| 2026-05-01 15:04 | 50.98651 | -0.55285 | 18991 ft | 350 kts | 148° |
| 2026-05-01 15:05 | 50.96622 | -0.53113 | 19574 ft | 353 kts | 148° |
| 2026-05-01 15:05 | 50.94590 | -0.50949 | 20135 ft | 355 kts | 148° |
| 2026-05-01 15:05 | 50.92542 | -0.48774 | 20707 ft | 357 kts | 148° |
| 2026-05-01 15:05 | 50.90439 | -0.46544 | 21270 ft | 360 kts | 148° |
| 2026-05-01 15:06 | 50.88346 | -0.44326 | 21822 ft | 363 kts | 148° |
| 2026-05-01 15:06 | 50.86244 | -0.42099 | 22346 ft | 365 kts | 148° |
| 2026-05-01 15:06 | 50.84123 | -0.39852 | 22871 ft | 369 kts | 148° |
| 2026-05-01 15:06 | 50.81984 | -0.37591 | 23428 ft | 371 kts | 148° |
| 2026-05-01 15:07 | 50.79829 | -0.35319 | 23927 ft | 374 kts | 148° |
| 2026-05-01 15:07 | 50.77655 | -0.33024 | 24370 ft | 376 kts | 148° |
| 2026-05-01 15:07 | 50.75473 | -0.30719 | 24807 ft | 379 kts | 148° |
| 2026-05-01 15:07 | 50.73275 | -0.28399 | 25235 ft | 381 kts | 148° |
| 2026-05-01 15:08 | 50.71062 | -0.26070 | 25648 ft | 383 kts | 148° |
| 2026-05-01 15:08 | 50.68837 | -0.23732 | 26068 ft | 385 kts | 148° |
| 2026-05-01 15:08 | 50.66595 | -0.21381 | 26487 ft | 388 kts | 148° |
| 2026-05-01 15:08 | 50.64348 | -0.19023 | 26915 ft | 390 kts | 147° |
| 2026-05-01 15:09 | 50.62109 | -0.16675 | 27284 ft | 393 kts | 147° |
| 2026-05-01 15:09 | 50.59802 | -0.14257 | 27671 ft | 395 kts | 147° |
| 2026-05-01 15:09 | 50.57534 | -0.11887 | 28045 ft | 397 kts | 147° |
| 2026-05-01 15:09 | 50.55227 | -0.09487 | 28425 ft | 399 kts | 147° |
| 2026-05-01 15:10 | 50.52908 | -0.07075 | 28799 ft | 401 kts | 147° |
| 2026-05-01 15:10 | 50.48340 | -0.02326 | 29523 ft | 405 kts | 147° |
| 2026-05-01 15:10 | 50.46782 | -0.00705 | 29762 ft | 407 kts | 147° |
| 2026-05-01 15:11 | 50.44813 | 0.01341 | 30078 ft | 408 kts | 147° |
| 2026-05-01 15:11 | 50.40190 | 0.06131 | 30715 ft | 412 kts | 147° |
| 2026-05-01 15:11 | 50.37817 | 0.08586 | 31002 ft | 415 kts | 147° |
| 2026-05-01 15:12 | 50.35398 | 0.11080 | 31291 ft | 417 kts | 147° |
| 2026-05-01 15:12 | 50.30565 | 0.16057 | 32106 ft | 415 kts | 147° |
| 2026-05-01 15:12 | 50.28152 | 0.18544 | 32513 ft | 415 kts | 147° |
| 2026-05-01 15:13 | 50.20923 | 0.25981 | 33213 ft | 415 kts | 147° |
| 2026-05-01 15:14 | 50.16090 | 0.30940 | 33218 ft | 417 kts | 147° |
| 2026-05-01 15:14 | 50.08820 | 0.38414 | 33217 ft | 413 kts | 147° |
| 2026-05-01 15:15 | 50.00117 | 0.47323 | 33218 ft | 402 kts | 147° |
| 2026-05-01 15:16 | 49.90815 | 0.56769 | 33218 ft | 399 kts | 147° |
| 2026-05-01 15:18 | 49.79354 | 0.68856 | 33217 ft | 400 kts | 144° |
| 2026-05-01 15:19 | 49.70338 | 0.78971 | 33213 ft | 401 kts | 145° |
| 2026-05-01 15:19 | 49.63503 | 0.86486 | 33197 ft | 402 kts | 145° |
| 2026-05-01 15:20 | 49.56664 | 0.93991 | 33205 ft | 401 kts | 145° |
| 2026-05-01 15:21 | 49.52120 | 0.98959 | 33215 ft | 400 kts | 145° |
| 2026-05-01 15:21 | 49.47567 | 1.03917 | 33196 ft | 401 kts | 145° |
| 2026-05-01 15:22 | 49.40689 | 1.11382 | 33183 ft | 403 kts | 145° |
| 2026-05-01 15:22 | 49.36103 | 1.16358 | 33180 ft | 403 kts | 145° |
| 2026-05-01 15:23 | 49.31516 | 1.21323 | 33184 ft | 404 kts | 146° |
| 2026-05-01 15:23 | 49.26918 | 1.26279 | 33176 ft | 405 kts | 146° |
| 2026-05-01 15:24 | 49.22297 | 1.31247 | 33172 ft | 407 kts | 146° |
| 2026-05-01 15:24 | 49.17697 | 1.36187 | 33206 ft | 406 kts | 145° |
| 2026-05-01 15:25 | 49.13061 | 1.41170 | 33225 ft | 404 kts | 146° |
| 2026-05-01 15:25 | 49.08485 | 1.46060 | 33226 ft | 403 kts | 146° |
| 2026-05-01 15:26 | 49.03892 | 1.50958 | 33199 ft | 404 kts | 146° |
| 2026-05-01 15:26 | 48.99275 | 1.55876 | 33185 ft | 406 kts | 146° |
| 2026-05-01 15:27 | 48.94635 | 1.60797 | 33188 ft | 407 kts | 146° |
| 2026-05-01 15:28 | 48.87615 | 1.68232 | 33192 ft | 409 kts | 146° |
| 2026-05-01 15:28 | 48.82974 | 1.73132 | 33195 ft | 409 kts | 146° |
| 2026-05-01 15:29 | 48.75954 | 1.80533 | 33233 ft | 406 kts | 146° |
| 2026-05-01 15:30 | 48.66733 | 1.90204 | 33221 ft | 403 kts | 146° |
| 2026-05-01 15:31 | 48.52878 | 2.04659 | 33188 ft | 406 kts | 146° |
| 2026-05-01 15:32 | 48.43555 | 2.14314 | 33187 ft | 406 kts | 146° |
| 2026-05-01 15:34 | 48.29503 | 2.28675 | 33179 ft | 408 kts | 152° |